"WATCHING THE WEATHER TO PROTECT LIFE AND PROPERTY"


THERE ARE CURRENTLY NO WATCHES NOR WARNINGS


Aviation
Satellite (InfraRed)


TNCA 241600Z 10015KT 9999 BKN019 31/25 Q1012 NOSIG
TNCB 241555Z 10014G25KT 070V150 9999 SCT023 33/24 Q1012
TNCC 241600Z 10013KT 9999 SCT024 31/26 Q1012 NOSIG=
TNCM 241600Z 12006KT 9999 FEW016 32/26 Q1016 NOSIG